Buckman Springs (441, 629) Station Data

Red Flag Warning: No
Fire Weather Zone: 258
SDGE Region: Mountain Empire
Lat/Lon: 32.762/-116.489

Observations

Time Wind Speed/Gust Temp(F) RH Fuel Moist Fuel Temp(F) Dewpt(F) Tmax(F) Tmin(F) Accum Precip 10-min Precip SL Press(mb)
6/22 4:50am 32 2 G 3 66° 18% - - 22° 72.4° 63.7° - - -
6/22 4:40am 71 1 G 2 66° 19% - - 22° 72.4° 63.7° - - -
6/22 4:30am 33 1 G 3 65° 20% - - 22° 72.4° 63.7° - - -
6/22 4:20am 34 2 G 4 66° 17% - - 20° 72.4° 63.7° - - -
6/22 4:10am 34 1 G 3 65° 19% - - 21° 72.4° 63.7° - - -
6/22 4:00am 26 2 G 3 65° 19% - - 22° 72.4° 63.7° - - -
6/22 3:50am 79 1 G 2 64° 21% - - 24° 72.4° 63.7° - - -
6/22 3:40am 34 1 G 2 66° 20% - - 23° 72.4° 63.9° - - -
6/22 3:30am 37 2 G 3 67° 17% - - 21° 72.4° 63.9° - - -
6/22 3:20am 29 3 G 4 67° 17% - - 21° 72.4° 63.9° - - -
6/22 3:10am 13 4 G 6 66° 19% - - 22° 72.4° 63.9° - - -
6/22 3:00am 4 1 G 4 65° 21% - - 24° 72.4° 63.9° - - -
6/22 2:50am 56 1 G 3 65° 22% - - 25° 72.4° 64.7° - - -
6/22 2:40am 58 2 G 3 66° 22% - - 25° 72.4° 64.7° - - -
6/22 2:30am 29 2 G 4 66° 22% - - 25° 72.4° 64.9° - - -
6/22 2:20am 40 1 G 2 66° 23% - - 27° 72.4° 65.1° - - -
6/22 2:10am 80 1 G 2 67° 22% - - 26° 72.4° 65.5° - - -
6/22 2:00am 59 2 G 3 68° 20% - - 25° 72.4° 65.5° - - -
6/22 1:50am 24 4 G 5 68° 19% - - 24° 72.4° 65.5° - - -
6/22 1:40am 33 3 G 4 67° 22% - - 27° 72.4° 65.5° - - -
6/22 1:30am 46 2 G 3 66° 23% - - 28° 72.4° 65.5° - - -
6/22 1:20am 32 2 G 4 66° 24% - - 28° 72.4° 65.5° - - -
6/22 1:10am 32 1 G 2 66° 26% - - 30° 72.4° 65.7° - - -
6/22 1:00am 51 1 G 2 66° 26% - - 30° 72.4° 65.8° - - -
6/22 12:50am 80 1 G 2 67° 26% - - 31° 72.4° 66.2° - - -
6/22 12:40am 100 1 G 2 70° 24% - - 31° 72.4° 68.5° - - -
6/22 12:30am 42 2 G 4 69° 25% - - 32° 72.4° 69.1° - - -
6/22 12:20am 42 1 G 2 70° 26% - - 34° 72.4° 69.5° - - -
6/22 12:10am 37 2 G 4 71° 26% - - 34° 72.4° 70.2° - - -
6/22 12:00am 28 2 G 5 72° 21% - - 30° 99.8° 69.6° - - -
6/21 11:50pm 4 4 G 8 72° 19% - - 27° 99.8° 69.6° - - -
6/21 11:40pm 11 3 G 5 71° 24% - - 32° 99.8° 69.6° - - -
6/21 11:30pm 8 3 G 5 71° 26% - - 34° 99.8° 69.6° - - -
6/21 11:20pm 354 3 G 5 72° 24% - - 33° 99.8° 70.4° - - -
6/21 11:10pm 8 2 G 4 71° 31% - - 39° 99.8° 70.4° - - -
6/21 11:00pm 21 2 G 3 71° 32% - - 40° 99.8° 70.4° - - -
6/21 10:50pm 19 2 G 5 73° 26% - - 36° 99.8° 71.1° - - -
6/21 10:40pm 348 4 G 7 74° 17% - - 26° 99.8° 71.1° - - -
6/21 10:30pm 348 6 G 7 74° 16% - - 25° 99.8° 71.1° - - -
6/21 10:20pm 352 4 G 6 74° 19% - - 30° 99.8° 71.1° - - -
6/21 10:10pm 347 5 G 7 75° 17% - - 27° 99.8° 71.1° - - -
6/21 10:00pm 356 5 G 8 75° 18% - - 28° 99.8° 71.1° - - -
6/21 9:50pm 356 4 G 7 75° 19% - - 30° 99.8° 71.1° - - -
6/21 9:40pm 354 4 G 6 75° 20% - - 32° 99.8° 71.1° - - -
6/21 9:30pm 355 5 G 6 76° 22% - - 34° 99.8° 71.1° - - -
6/21 9:20pm 360 4 G 6 76° 26% - - 39° 99.8° 71.1° - - -
6/21 9:10pm 13 3 G 4 76° 31% - - 44° 99.8° 71.1° - - -
6/21 9:00pm 18 2 G 3 77° 33% - - 46° 99.8° 71.1° - - -
6/21 8:50pm 16 3 G 4 78° 31% - - 45° 99.8° 71.1° - - -
6/21 8:40pm 4 3 G 4 79° 30% - - 45° 99.8° 71.1° - - -
6/21 8:30pm 4 3 G 4 79° 30% - - 45° 99.8° 71.1° - - -
6/21 8:20pm 14 4 G 5 81° 27% - - 44° 99.8° 71.1° - - -
6/21 8:10pm 6 4 G 5 82° 28% - - 46° 99.8° 71.1° - - -
6/21 8:00pm 343 3 G 5 84° 24% - - 43° 99.8° 71.1° - - -
6/21 7:50pm 26 2 G 4 86° 22% - - 42° 99.8° 71.1° - - -
6/21 7:40pm 326 2 G 5 87° 20% - - 41° 99.8° 71.1° - - -
6/21 7:30pm 38 1 G 3 87° 22% - - 43° 99.8° 71.1° - - -
6/21 7:20pm 344 2 G 4 87° 20% - - 42° 99.8° 71.1° - - -
6/21 7:10pm 342 3 G 4 90° 16% - - 38° 99.8° 71.1° - - -
6/21 7:00pm 316 2 G 4 92° 12% - - 32° 99.8° 71.1° - - -
6/21 6:50pm 248 4 G 6 93° 9% - - 26° 99.8° 71.1° - - -
6/21 6:40pm 234 5 G 7 94° 8% - - 24° 99.8° 71.1° - - -
6/21 6:30pm 239 5 G 7 95° 8% - - 24° 99.8° 71.1° - - -
6/21 6:20pm 249 5 G 6 95° 8% - - 23° 99.8° 71.1° - - -
6/21 6:10pm 247 5 G 8 96° 7% - - 23° 99.8° 71.1° - - -
6/21 6:00pm 259 4 G 7 96° 7% - - 23° 99.8° 71.1° - - -
6/21 5:50pm 274 4 G 9 96° 8% - - 25° 99.8° 71.1° - - -
6/21 5:40pm 274 4 G 8 96° 8% - - 25° 99.8° 71.1° - - -
6/21 5:30pm 314 6 G 12 96° 8% - - 27° 99.8° 71.1° - - -
6/21 5:20pm 283 5 G 10 96° 9% - - 27° 99.8° 71.1° - - -
6/21 5:10pm 271 4 G 8 97° 9% - - 27° 99.8° 71.1° - - -
6/21 5:00pm 296 6 G 11 97° 8% - - 26° 99.8° 71.1° - - -
6/21 4:50pm 289 5 G 12 97° 8% - - 25° 99.8° 71.1° - - -
6/21 4:40pm 284 7 G 14 97° 8% - - 25° 99.8° 71.1° - - -
6/21 4:30pm 289 6 G 12 97° 8% - - 25° 99.8° 71.1° - - -
6/21 4:20pm 277 6 G 13 97° 7% - - 25° 99.8° 71.1° - - -
6/21 4:10pm 264 5 G 9 97° 8% - - 26° 99.8° 71.1° - - -
6/21 4:00pm 279 6 G 11 97° 8% - - 27° 99.8° 71.1° - - -
6/21 3:50pm 273 7 G 14 98° 9% - - 29° 99.8° 71.1° - - -
6/21 3:40pm 273 8 G 15 98° 9% - - 29° 99.8° 71.1° - - -
6/21 3:30pm 245 7 G 14 98° 9% - - 30° 99.8° 71.1° - - -
6/21 3:20pm 237 6 G 13 98° 9% - - 30° 99.8° 71.1° - - -
6/21 3:10pm 264 5 G 12 99° 9% - - 31° 99.8° 71.1° - - -
6/21 3:00pm 321 4 G 12 98° 9% - - 30° 99.8° 71.1° - - -
6/21 2:50pm 258 5 G 14 99° 9% - - 30° 99.8° 71.1° - - -
6/21 2:40pm 295 6 G 9 98° 9% - - 30° 99.7° 71.1° - - -
6/21 2:30pm 257 7 G 16 98° 9% - - 30° 99.7° 71.1° - - -
6/21 2:20pm 279 6 G 13 98° 9% - - 30° 99.7° 71.1° - - -
6/21 2:10pm 246 8 G 16 99° 10% - - 32° 99.7° 71.1° - - -
6/21 2:00pm 289 7 G 15 98° 10% - - 32° 99.7° 71.1° - - -
6/21 1:50pm 269 8 G 13 98° 10% - - 33° 99.7° 71.1° - - -
6/21 1:40pm 239 10 G 15 98° 11% - - 33° 99.7° 71.1° - - -
6/21 1:30pm 239 9 G 16 98° 9% - - 31° 99.7° 71.1° - - -
6/21 1:20pm 256 9 G 14 98° 9% - - 30° 99.7° 71.1° - - -
6/21 1:10pm 233 6 G 13 98° 9% - - 29° 99.7° 71.1° - - -
6/21 1:00pm 223 6 G 12 99° 7% - - 24° 99.7° 71.1° - - -
6/21 12:50pm 257 7 G 13 99° 6% - - 22° 99.7° 71.1° - - -
6/21 12:40pm 239 7 G 14 99° 6% - - 20° 99.7° 71.1° - - -
6/21 12:30pm 256 6 G 13 99° 7% - - 23° 99.7° 71.1° - - -
6/21 12:20pm 272 6 G 11 99° 7% - - 24° 99.5° 71.1° - - -
6/21 12:10pm 301 5 G 9 99° 7% - - 24° 99.5° 71.1° - - -
6/21 12:00pm 293 5 G 11 99° 7% - - 23° 99.5° 71.1° - - -
6/21 11:50am 300 6 G 11 98° 7% - - 22° 99.3° 71.1° - - -
6/21 11:40am 272 5 G 10 98° 7% - - 22° 99.3° 71.1° - - -
6/21 11:30am 337 7 G 10 98° 6% - - 20° 99.3° 71.1° - - -
6/21 11:20am 341 4 G 10 98° 6% - - 21° 99.3° 71.1° - - -
6/21 11:10am 343 7 G 11 98° 6% - - 20° 98.7° 71.1° - - -
6/21 11:00am 311 4 G 9 98° 6% - - 19° 98.7° 71.1° - - -
6/21 10:50am 291 5 G 11 97° 6% - - 20° 98.7° 71.1° - - -
6/21 10:40am 261 6 G 12 98° 6% - - 19° 98.7° 71.1° - - -
6/21 10:30am 331 5 G 10 97° 6% - - 18° 98.1° 71.1° - - -
6/21 10:20am 0 5 G 8 97° 6% - - 19° 98.1° 71.1° - - -
6/21 10:10am 347 7 G 12 97° 6% - - 18° 98.1° 71.1° - - -
6/21 10:00am 5 3 G 8 98° 6% - - 18° 98.1° 71.1° - - -
6/21 9:50am 5 4 G 10 97° 6% - - 17° 97.3° 71.1° - - -
6/21 9:40am 13 3 G 9 97° 6% - - 18° 97.1° 71.1° - - -
6/21 9:30am 120 2 G 5 96° 6% - - 20° 96.6° 71.1° - - -
6/21 9:20am 183 1 G 4 94° 9% - - 26° 95.6° 71.1° - - -
6/21 9:10am 176 2 G 5 92° 11% - - 29° 92.6° 71.1° - - -
6/21 9:00am 175 2 G 3 90° 12% - - 30° 91° 71.1° - - -
6/21 8:50am 188 2 G 4 88° 13% - - 31° 89.1° 71.1° - - -
6/21 8:40am 192 3 G 4 86° 14% - - 32° 86.8° 71.1° - - -
6/21 8:30am 185 3 G 4 85° 17% - - 36° 85.9° 71.1° - - -
6/21 8:20am 171 3 G 5 84° 17% - - 35° 84.5° 71.1° - - -
6/21 8:10am 182 4 G 6 82° 17% - - 33° 83.8° 71.1° - - -
6/21 8:00am 190 3 G 5 83° 16% - - 33° 83.8° 71.1° - - -
6/21 7:50am 170 2 G 5 83° 15% - - 31° 83.8° 71.1° - - -
6/21 7:40am 266 3 G 5 81° 15% - - 29° 82.7° 71.1° - - -
6/21 7:30am 260 2 G 4 80° 15% - - 29° 80.6° 71.1° - - -
6/21 7:20am 3 0 G 2 78° 17% - - 30° 79.8° 71.1° - - -
6/21 7:10am 306 1 G 3 76° 16% - - 27° 78.9° 71.1° - - -
6/21 7:00am 30 1 G 5 75° 16% - - 25° 78.9° 71.1° - - -
6/21 6:50am 49 2 G 5 75° 15% - - 24° 78.9° 71.1° - - -
6/21 6:40am 58 2 G 5 73° 15% - - 22° 78.9° 71.1° - - -
6/21 6:30am 21 1 G 5 72° 15% - - 22° 78.9° 71.1° - - -
6/21 6:20am 48 1 G 3 72° 15% - - 22° 78.9° 71.1° - - -
6/21 6:10am 74 1 G 3 72° 15% - - 21° 78.9° 71.9° - - -
6/21 6:00am 48 2 G 3 73° 14% - - 21° 78.9° 72.7° - - -
6/21 5:50am 34 4 G 8 75° 13% - - 21° 78.9° 73.2° - - -
6/21 5:40am 2 7 G 12 77° 12% - - 20° 78.9° 74.8° - - -
6/21 5:30am 342 10 G 14 78° 12% - - 20° 78.9° 74.8° - - -
6/21 5:20am 343 11 G 16 78° 11% - - 20° 78.9° 74.8° - - -
6/21 5:10am 345 13 G 17 78° 11% - - 20° 78.9° 74.8° - - -
6/21 5:00am 350 11 G 14 78° 12% - - 20° 78.9° 74.8° - - -
6/21 4:50am 345 12 G 16 77° 12% - - 21° 78.9° 74.8° - - -
6/21 4:40am 339 12 G 17 78° 12% - - 21° 78.9° 74.8° - - -
6/21 4:30am 339 13 G 17 78° 12% - - 22° 78.9° 74.8° - - -
6/21 4:20am 340 13 G 16 78° 12% - - 22° 78.9° 74.8° - - -
6/21 4:10am 342 14 G 19 78° 13% - - 22° 78.7° 74.8° - - -
6/21 4:00am 338 14 G 20 78° 13% - - 23° 78.7° 74.8° - - -
6/21 3:50am 336 13 G 17 78° 13% - - 23° 78.7° 74.8° - - -
6/21 3:40am 335 13 G 18 77° 13% - - 23° 78.7° 74.8° - - -
6/21 3:30am 338 13 G 18 76° 14% - - 24° 78.7° 74.8° - - -
6/21 3:20am 341 13 G 18 76° 14% - - 24° 78.7° 74.8° - - -
6/21 3:10am 340 14 G 19 76° 14% - - 24° 78.7° 74.8° - - -
6/21 3:00am 337 15 G 19 76° 14% - - 23° 78.7° 74.8° - - -
6/21 2:50am 336 14 G 19 77° 13% - - 23° 78.7° 74.8° - - -
6/21 2:40am 339 15 G 21 76° 14% - - 23° 78.7° 74.8° - - -
6/21 2:30am 340 15 G 20 76° 14% - - 23° 78.7° 75.5° - - -
6/21 2:20am 340 14 G 19 76° 14% - - 24° 78.7° 75.9° - - -
6/21 2:10am 338 14 G 19 77° 14% - - 24° 78.7° 75.9° - - -
6/21 2:00am 338 15 G 20 76° 15% - - 25° 78.7° 75.9° - - -
6/21 1:50am 335 14 G 18 77° 15% - - 26° 78.7° 76° - - -
6/21 1:40am 339 14 G 19 76° 16% - - 27° 78.7° 76° - - -
6/21 1:30am 337 14 G 20 76° 17% - - 28° 78.7° 76° - - -
6/21 1:20am 338 14 G 19 76° 18% - - 30° 78.7° 76.1° - - -
6/21 1:10am 340 15 G 20 77° 19% - - 31° 78.7° 76.3° - - -
6/21 1:00am 340 15 G 21 77° 19% - - 32° 78.7° 76.6° - - -
6/21 12:50am 339 14 G 19 77° 20% - - 33° 78.7° 76.7° - - -
6/21 12:40am 341 15 G 20 77° 21% - - 34° 78.7° 76.7° - - -
6/21 12:30am 344 15 G 20 77° 21% - - 34° 78.7° 76.9° - - -
6/21 12:20am 348 12 G 18 77° 21% - - 35° 78.7° 77.1° - - -
6/21 12:10am 353 11 G 15 78° 21% - - 35° 78.7° 77.6° - - -
6/21 12:00am 348 12 G 16 78° 21% - - 36° 100.8° 61.1° - - -
6/20 11:50pm 343 14 G 18 78° 22% - - 36° 100.8° 61.1° - - -
6/20 11:40pm 342 13 G 17 78° 22% - - 37° 100.8° 61.1° - - -
6/20 11:30pm 342 12 G 17 78° 22% - - 37° 100.8° 61.1° - - -
6/20 11:20pm 341 13 G 17 78° 22% - - 37° 100.8° 61.1° - - -
6/20 11:10pm 340 13 G 18 78° 22% - - 36° 100.8° 61.1° - - -
6/20 11:00pm 339 13 G 18 78° 22% - - 36° 100.8° 61.1° - - -
6/20 10:50pm 338 14 G 18 77° 22% - - 35° 100.8° 61.1° - - -
6/20 10:40pm 338 13 G 18 78° 21% - - 35° 100.8° 61.1° - - -
6/20 10:30pm 341 13 G 18 78° 21% - - 35° 100.8° 61.1° - - -
6/20 10:20pm 342 13 G 17 78° 21% - - 36° 100.8° 61.1° - - -
6/20 10:10pm 343 12 G 17 78° 22% - - 36° 100.8° 61.1° - - -
6/20 10:00pm 345 14 G 18 78° 23% - - 37° 100.8° 61.1° - - -
6/20 9:50pm 345 13 G 18 78° 24% - - 39° 100.8° 61.1° - - -
6/20 9:40pm 340 12 G 16 78° 25% - - 40° 100.8° 61.1° - - -
6/20 9:30pm 343 12 G 17 79° 26% - - 41° 100.8° 61.1° - - -
6/20 9:20pm 346 12 G 16 79° 26% - - 42° 100.8° 61.1° - - -
6/20 9:10pm 348 12 G 17 80° 28% - - 44° 100.8° 61.1° - - -
6/20 9:00pm 345 12 G 17 81° 29% - - 46° 100.8° 61.1° - - -
6/20 8:50pm 342 11 G 15 82° 30% - - 47° 100.8° 61.1° - - -
6/20 8:40pm 341 10 G 16 82° 31% - - 48° 100.8° 61.1° - - -
6/20 8:30pm 345 10 G 13 82° 30% - - 48° 100.8° 61.1° - - -
6/20 8:20pm 341 11 G 15 84° 29% - - 48° 100.8° 61.1° - - -
6/20 8:10pm 341 10 G 14 84° 29% - - 48° 100.8° 61.1° - - -
6/20 8:00pm 337 9 G 13 86° 26% - - 47° 100.8° 61.1° - - -
6/20 7:50pm 333 8 G 12 86° 25% - - 46° 100.8° 61.1° - - -
6/20 7:40pm 332 8 G 13 87° 24% - - 46° 100.8° 61.1° - - -
6/20 7:30pm 349 8 G 14 87° 25% - - 47° 100.8° 61.1° - - -
6/20 7:20pm 332 9 G 12 88° 25% - - 47° 100.8° 61.1° - - -
6/20 7:10pm 330 9 G 13 89° 23% - - 46° 100.8° 61.1° - - -
6/20 7:00pm 340 8 G 12 90° 22% - - 46° 100.8° 61.1° - - -
6/20 6:50pm 340 7 G 11 91° 21% - - 46° 100.8° 61.1° - - -
6/20 6:40pm 335 7 G 11 91° 21% - - 46° 100.8° 61.1° - - -
6/20 6:30pm 329 9 G 12 92° 20% - - 46° 100.8° 61.1° - - -
6/20 6:20pm 324 9 G 14 93° 20% - - 45° 100.8° 61.1° - - -
6/20 6:10pm 332 9 G 14 93° 19% - - 45° 100.8° 61.1° - - -
6/20 6:00pm 333 10 G 14 94° 18% - - 43° 100.8° 61.1° - - -